Portada
Imágenes satélite Pronóstico 15 díasClimaPredicción Marítima Ciclones Rayo AeropuertosFAQ Noticias Acerca
El tiempo : Europa África América del Norte América del Sur Asia Australia-Oceanía Otros
Idiomas Contacto

Chichén Itzá, México

latitud: 20-38-30N, longitud: 088-26-58W, altitud: 31 m


METAR: MMCT 232040Z 36005KT 8SM BKN040 35/14 A2984 RMK 8/400 MSGTX MMMD
short-TAF: falta
long-TAF: falta

Hora: 03:22 (08:22 UTC)

Observación

El informe se hizo hace 11 horas y 42 minutos, a las 20:40 UTC  
Viento 05 kt del norte
Temperatura 35°C
Humedad 28%
Presión 1011 hPa
Visibilidad 12.9 km
Cielo nuboso a una altura de 4000 ft

Cambiar las unidades
La información que se ofrece en estas páginas está sujeta a una cláusula de exención de responsabilidad
El tiempo : Europa África América del Norte América del Sur Asia Australia-Oceanía Otros
Imágenes satélite Pronóstico 15 díasClimaPredicción Marítima Ciclones Rayo AeropuertosFAQ Idiomas Contacto Noticias Acerca